Wendover Airport
KENV : now visible

Airfield :











YOU CAN JOIN US ON...

 
LOGIN :

Register | Disclaimer

   EN    FR    IT 

 









Legend :    VFR   Marginal VFR   IFR   Intensive IFR   Very Intensive IFR
Visi :
Ceiling :
>= 8 km
>= 3000ft
5 to 8 km
1000 to 3000 ft
1500m to 5 km
500 to 1000 ft
800 to 1500m
200 to 500 ft
< 800m
< 200 ft
Symbols :   Thunderstorms  Fog  Heavy snow  Heavy precipitations  Wind > 20 kt







- Airport Elevation : 4237 ft


KENV - Wendover

CURRENT METAR :
  • 262356Z AUTO 23018G24KT 10SM CLR 33/M03 A2980 RMK AO2 WSHFT 2338 SLP048 T03281033 10333 20267 58013

EXPIRED METARs :
  • 262256Z AUTO 18016G22KT 10SM CLR 32/M02 A2981 RMK AO2 SLP053 T03221017
  • 262156Z AUTO 19011G21KT 10SM CLR 32/M02 A2983 RMK AO2 SLP057 T03171017

TAF KENV
Valid from the 27 at 00:00 until the 28 at 00:00 UTC


262320Z 2700/2724 20015G25KT P6SM SCT100 SCT150
FM270300 30008KT P6SM SCT150
FM271600 10010KT P6SM SCT150
KZLC FIR / North America



MET'MAP, your aeronautical weather chart ! - Copyright ORBIFLY December 2007 - Disclaimer

ORBIFLY MET'MAP TEAM :

Programming & Development : Alexandra Zaïnal
Concept & Development : Baudouin d'Aumeries
Co-Development & Prog : Marc-Olivier Méhu
Technical & hardware support : Manuel Goepfert

Contact : metmap@orbifly.com




SOURCES & CREDITS :

   NOAA       Earth
Advisory